sensor_id;sensor_type;location;lat;lon;timestamp;P1;durP1;ratioP1;P2;durP2;ratioP2
5010;SDS011;2524;54.364;10.072;2023-07-30T00:01:07;2.73;;;2.53;;
5010;SDS011;2524;54.364;10.072;2023-07-30T00:03:32;2.80;;;2.60;;
5010;SDS011;2524;54.364;10.072;2023-07-30T00:05:58;2.93;;;2.73;;
5010;SDS011;2524;54.364;10.072;2023-07-30T00:08:23;2.77;;;2.67;;
5010;SDS011;2524;54.364;10.072;2023-07-30T00:10:49;5.00;;;3.17;;
5010;SDS011;2524;54.364;10.072;2023-07-30T00:13:15;2.40;;;2.30;;
5010;SDS011;2524;54.364;10.072;2023-07-30T00:15:40;3.13;;;2.93;;
5010;SDS011;2524;54.364;10.072;2023-07-30T00:18:06;4.63;;;3.20;;
5010;SDS011;2524;54.364;10.072;2023-07-30T00:20:33;3.10;;;2.70;;
5010;SDS011;2524;54.364;10.072;2023-07-30T00:22:59;3.53;;;3.23;;
5010;SDS011;2524;54.364;10.072;2023-07-30T00:25:25;4.17;;;2.90;;
5010;SDS011;2524;54.364;10.072;2023-07-30T00:27:50;2.80;;;2.60;;
5010;SDS011;2524;54.364;10.072;2023-07-30T00:30:16;4.40;;;3.10;;
5010;SDS011;2524;54.364;10.072;2023-07-30T00:32:41;3.17;;;2.87;;
5010;SDS011;2524;54.364;10.072;2023-07-30T00:35:09;5.53;;;2.70;;
5010;SDS011;2524;54.364;10.072;2023-07-30T00:37:35;4.07;;;2.90;;
5010;SDS011;2524;54.364;10.072;2023-07-30T00:40:01;3.83;;;3.03;;
5010;SDS011;2524;54.364;10.072;2023-07-30T00:42:28;4.03;;;3.50;;
5010;SDS011;2524;54.364;10.072;2023-07-30T00:44:54;2.80;;;2.60;;
5010;SDS011;2524;54.364;10.072;2023-07-30T00:47:20;3.13;;;2.80;;
5010;SDS011;2524;54.364;10.072;2023-07-30T00:49:46;5.40;;;3.10;;
5010;SDS011;2524;54.364;10.072;2023-07-30T00:52:12;3.20;;;2.93;;
5010;SDS011;2524;54.364;10.072;2023-07-30T00:54:39;3.33;;;3.10;;
5010;SDS011;2524;54.364;10.072;2023-07-30T00:57:04;3.70;;;3.37;;
5010;SDS011;2524;54.364;10.072;2023-07-30T00:59:32;2.73;;;2.53;;
5010;SDS011;2524;54.364;10.072;2023-07-30T01:01:58;3.73;;;3.37;;
5010;SDS011;2524;54.364;10.072;2023-07-30T01:04:24;3.80;;;2.90;;
5010;SDS011;2524;54.364;10.072;2023-07-30T01:06:50;3.63;;;3.33;;
5010;SDS011;2524;54.364;10.072;2023-07-30T01:09:16;3.40;;;2.87;;
5010;SDS011;2524;54.364;10.072;2023-07-30T01:11:42;4.00;;;3.60;;
5010;SDS011;2524;54.364;10.072;2023-07-30T01:14:09;3.80;;;3.50;;
5010;SDS011;2524;54.364;10.072;2023-07-30T01:16:35;3.67;;;3.37;;
5010;SDS011;2524;54.364;10.072;2023-07-30T01:19:01;6.20;;;3.73;;
5010;SDS011;2524;54.364;10.072;2023-07-30T01:21:31;3.60;;;3.10;;
5010;SDS011;2524;54.364;10.072;2023-07-30T01:24:00;3.60;;;3.27;;
5010;SDS011;2524;54.364;10.072;2023-07-30T01:26:27;3.23;;;3.03;;
5010;SDS011;2524;54.364;10.072;2023-07-30T01:29:00;5.23;;;3.10;;
5010;SDS011;2524;54.364;10.072;2023-07-30T01:31:28;6.13;;;3.93;;
5010;SDS011;2524;54.364;10.072;2023-07-30T01:33:55;3.03;;;2.93;;
5010;SDS011;2524;54.364;10.072;2023-07-30T01:36:21;3.50;;;3.20;;
5010;SDS011;2524;54.364;10.072;2023-07-30T01:38:47;4.13;;;3.53;;
5010;SDS011;2524;54.364;10.072;2023-07-30T01:41:15;4.10;;;3.70;;
5010;SDS011;2524;54.364;10.072;2023-07-30T01:43:41;5.20;;;3.60;;
5010;SDS011;2524;54.364;10.072;2023-07-30T01:46:06;3.77;;;3.47;;
5010;SDS011;2524;54.364;10.072;2023-07-30T01:48:32;4.73;;;3.60;;
5010;SDS011;2524;54.364;10.072;2023-07-30T01:50:57;9.70;;;4.93;;
5010;SDS011;2524;54.364;10.072;2023-07-30T01:53:23;6.00;;;4.00;;
5010;SDS011;2524;54.364;10.072;2023-07-30T01:55:49;5.60;;;4.20;;
5010;SDS011;2524;54.364;10.072;2023-07-30T01:58:14;4.70;;;4.30;;
5010;SDS011;2524;54.364;10.072;2023-07-30T02:00:40;4.10;;;3.30;;
5010;SDS011;2524;54.364;10.072;2023-07-30T02:03:06;5.17;;;3.83;;
5010;SDS011;2524;54.364;10.072;2023-07-30T02:05:32;3.70;;;3.37;;
5010;SDS011;2524;54.364;10.072;2023-07-30T02:07:57;3.20;;;3.00;;
5010;SDS011;2524;54.364;10.072;2023-07-30T02:10:24;5.60;;;4.33;;
5010;SDS011;2524;54.364;10.072;2023-07-30T02:12:50;3.93;;;3.53;;
5010;SDS011;2524;54.364;10.072;2023-07-30T02:15:16;4.00;;;3.03;;
5010;SDS011;2524;54.364;10.072;2023-07-30T02:17:41;3.33;;;2.90;;
5010;SDS011;2524;54.364;10.072;2023-07-30T02:20:07;3.40;;;3.10;;
5010;SDS011;2524;54.364;10.072;2023-07-30T02:22:34;3.30;;;3.03;;
5010;SDS011;2524;54.364;10.072;2023-07-30T02:24:59;5.70;;;4.10;;
5010;SDS011;2524;54.364;10.072;2023-07-30T02:27:25;3.10;;;2.90;;
5010;SDS011;2524;54.364;10.072;2023-07-30T02:29:50;3.63;;;3.33;;
5010;SDS011;2524;54.364;10.072;2023-07-30T02:32:16;5.10;;;4.30;;
5010;SDS011;2524;54.364;10.072;2023-07-30T02:34:41;6.47;;;3.77;;
5010;SDS011;2524;54.364;10.072;2023-07-30T02:37:07;3.23;;;3.03;;
5010;SDS011;2524;54.364;10.072;2023-07-30T02:39:33;4.93;;;3.40;;
5010;SDS011;2524;54.364;10.072;2023-07-30T02:41:58;3.03;;;2.93;;
5010;SDS011;2524;54.364;10.072;2023-07-30T02:44:24;3.30;;;3.00;;
5010;SDS011;2524;54.364;10.072;2023-07-30T02:46:49;3.67;;;3.30;;
5010;SDS011;2524;54.364;10.072;2023-07-30T02:49:15;2.80;;;2.70;;
5010;SDS011;2524;54.364;10.072;2023-07-30T02:51:40;4.50;;;3.07;;
5010;SDS011;2524;54.364;10.072;2023-07-30T02:54:08;2.57;;;2.37;;
5010;SDS011;2524;54.364;10.072;2023-07-30T02:56:34;2.77;;;2.57;;
5010;SDS011;2524;54.364;10.072;2023-07-30T02:59:00;3.03;;;2.83;;
5010;SDS011;2524;54.364;10.072;2023-07-30T03:01:26;2.70;;;2.50;;
5010;SDS011;2524;54.364;10.072;2023-07-30T03:03:52;2.67;;;2.47;;
5010;SDS011;2524;54.364;10.072;2023-07-30T03:06:17;2.77;;;2.57;;
5010;SDS011;2524;54.364;10.072;2023-07-30T03:08:43;2.57;;;2.47;;
5010;SDS011;2524;54.364;10.072;2023-07-30T03:11:08;2.40;;;2.30;;
5010;SDS011;2524;54.364;10.072;2023-07-30T03:13:34;2.27;;;2.17;;
5010;SDS011;2524;54.364;10.072;2023-07-30T03:16:00;2.47;;;2.27;;
5010;SDS011;2524;54.364;10.072;2023-07-30T03:18:25;2.67;;;2.47;;
5010;SDS011;2524;54.364;10.072;2023-07-30T03:20:51;2.30;;;2.20;;
5010;SDS011;2524;54.364;10.072;2023-07-30T03:23:21;2.20;;;2.10;;
5010;SDS011;2524;54.364;10.072;2023-07-30T03:25:47;2.63;;;2.47;;
5010;SDS011;2524;54.364;10.072;2023-07-30T03:28:12;2.47;;;2.27;;
5010;SDS011;2524;54.364;10.072;2023-07-30T03:30:38;2.70;;;2.50;;
5010;SDS011;2524;54.364;10.072;2023-07-30T03:33:04;2.40;;;2.30;;
5010;SDS011;2524;54.364;10.072;2023-07-30T03:35:29;2.63;;;2.43;;
5010;SDS011;2524;54.364;10.072;2023-07-30T03:37:55;2.70;;;2.50;;
5010;SDS011;2524;54.364;10.072;2023-07-30T03:40:20;2.63;;;2.27;;
5010;SDS011;2524;54.364;10.072;2023-07-30T03:42:46;2.33;;;2.13;;
5010;SDS011;2524;54.364;10.072;2023-07-30T03:45:11;2.50;;;2.40;;
5010;SDS011;2524;54.364;10.072;2023-07-30T03:47:37;2.60;;;2.50;;
5010;SDS011;2524;54.364;10.072;2023-07-30T03:50:03;2.13;;;2.03;;
5010;SDS011;2524;54.364;10.072;2023-07-30T03:52:28;2.00;;;1.90;;
5010;SDS011;2524;54.364;10.072;2023-07-30T03:54:54;2.60;;;2.40;;
5010;SDS011;2524;54.364;10.072;2023-07-30T03:57:19;3.47;;;2.53;;
5010;SDS011;2524;54.364;10.072;2023-07-30T03:59:45;2.53;;;2.33;;
5010;SDS011;2524;54.364;10.072;2023-07-30T04:02:10;2.37;;;2.20;;
5010;SDS011;2524;54.364;10.072;2023-07-30T04:04:40;2.10;;;2.00;;
5010;SDS011;2524;54.364;10.072;2023-07-30T04:07:07;2.30;;;2.20;;
5010;SDS011;2524;54.364;10.072;2023-07-30T04:09:32;2.10;;;2.00;;
5010;SDS011;2524;54.364;10.072;2023-07-30T04:11:58;2.63;;;2.43;;
5010;SDS011;2524;54.364;10.072;2023-07-30T04:14:23;2.20;;;2.10;;
5010;SDS011;2524;54.364;10.072;2023-07-30T04:16:49;2.27;;;2.10;;
5010;SDS011;2524;54.364;10.072;2023-07-30T04:19:14;4.30;;;3.20;;
5010;SDS011;2524;54.364;10.072;2023-07-30T04:21:40;2.60;;;2.40;;
5010;SDS011;2524;54.364;10.072;2023-07-30T04:24:05;2.90;;;2.70;;
5010;SDS011;2524;54.364;10.072;2023-07-30T04:26:31;2.47;;;2.37;;
5010;SDS011;2524;54.364;10.072;2023-07-30T04:28:56;2.60;;;2.50;;
5010;SDS011;2524;54.364;10.072;2023-07-30T04:31:22;3.30;;;2.60;;
5010;SDS011;2524;54.364;10.072;2023-07-30T04:33:47;2.47;;;2.37;;
5010;SDS011;2524;54.364;10.072;2023-07-30T04:36:13;2.53;;;2.33;;
5010;SDS011;2524;54.364;10.072;2023-07-30T04:38:38;2.20;;;2.10;;
5010;SDS011;2524;54.364;10.072;2023-07-30T04:41:04;2.80;;;2.60;;
5010;SDS011;2524;54.364;10.072;2023-07-30T04:43:30;2.87;;;2.70;;
5010;SDS011;2524;54.364;10.072;2023-07-30T04:45:55;3.63;;;3.43;;
5010;SDS011;2524;54.364;10.072;2023-07-30T04:48:21;3.73;;;3.53;;
5010;SDS011;2524;54.364;10.072;2023-07-30T04:50:47;3.53;;;3.33;;
5010;SDS011;2524;54.364;10.072;2023-07-30T04:53:12;6.50;;;6.00;;
5010;SDS011;2524;54.364;10.072;2023-07-30T04:55:38;4.77;;;4.43;;
5010;SDS011;2524;54.364;10.072;2023-07-30T04:58:03;4.97;;;4.57;;
5010;SDS011;2524;54.364;10.072;2023-07-30T05:00:29;5.63;;;5.23;;
5010;SDS011;2524;54.364;10.072;2023-07-30T05:02:55;4.23;;;3.97;;
5010;SDS011;2524;54.364;10.072;2023-07-30T05:05:20;4.43;;;4.13;;
5010;SDS011;2524;54.364;10.072;2023-07-30T05:07:46;5.03;;;4.63;;
5010;SDS011;2524;54.364;10.072;2023-07-30T05:10:11;5.43;;;5.00;;
5010;SDS011;2524;54.364;10.072;2023-07-30T05:12:37;6.00;;;5.50;;
5010;SDS011;2524;54.364;10.072;2023-07-30T05:15:03;6.70;;;6.10;;
5010;SDS011;2524;54.364;10.072;2023-07-30T05:17:29;6.23;;;5.63;;
5010;SDS011;2524;54.364;10.072;2023-07-30T05:19:55;5.20;;;4.90;;
5010;SDS011;2524;54.364;10.072;2023-07-30T05:22:20;8.87;;;7.93;;
5010;SDS011;2524;54.364;10.072;2023-07-30T05:24:46;6.67;;;6.07;;
5010;SDS011;2524;54.364;10.072;2023-07-30T05:27:12;9.37;;;8.50;;
5010;SDS011;2524;54.364;10.072;2023-07-30T05:29:38;10.80;;;8.10;;
5010;SDS011;2524;54.364;10.072;2023-07-30T05:32:03;6.53;;;5.87;;
5010;SDS011;2524;54.364;10.072;2023-07-30T05:34:29;5.10;;;4.70;;
5010;SDS011;2524;54.364;10.072;2023-07-30T05:36:55;5.00;;;4.60;;
5010;SDS011;2524;54.364;10.072;2023-07-30T05:39:20;5.30;;;4.90;;
5010;SDS011;2524;54.364;10.072;2023-07-30T05:41:46;5.63;;;5.13;;
5010;SDS011;2524;54.364;10.072;2023-07-30T05:44:11;9.00;;;7.23;;
5010;SDS011;2524;54.364;10.072;2023-07-30T05:46:37;6.43;;;5.80;;
5010;SDS011;2524;54.364;10.072;2023-07-30T05:49:02;6.33;;;5.83;;
5010;SDS011;2524;54.364;10.072;2023-07-30T05:51:28;5.47;;;5.03;;
5010;SDS011;2524;54.364;10.072;2023-07-30T05:53:53;5.13;;;4.83;;
5010;SDS011;2524;54.364;10.072;2023-07-30T05:56:19;5.43;;;5.03;;
5010;SDS011;2524;54.364;10.072;2023-07-30T05:58:45;6.67;;;5.93;;
5010;SDS011;2524;54.364;10.072;2023-07-30T06:01:10;5.43;;;5.03;;
5010;SDS011;2524;54.364;10.072;2023-07-30T06:03:36;4.87;;;4.50;;
5010;SDS011;2524;54.364;10.072;2023-07-30T06:06:02;5.70;;;5.30;;
5010;SDS011;2524;54.364;10.072;2023-07-30T06:08:28;8.63;;;7.00;;
5010;SDS011;2524;54.364;10.072;2023-07-30T06:10:54;10.37;;;7.40;;
5010;SDS011;2524;54.364;10.072;2023-07-30T06:13:20;6.47;;;5.80;;
5010;SDS011;2524;54.364;10.072;2023-07-30T06:15:46;7.40;;;5.60;;
5010;SDS011;2524;54.364;10.072;2023-07-30T06:18:11;7.00;;;5.23;;
5010;SDS011;2524;54.364;10.072;2023-07-30T06:20:37;7.43;;;6.03;;
5010;SDS011;2524;54.364;10.072;2023-07-30T06:23:02;6.10;;;5.30;;
5010;SDS011;2524;54.364;10.072;2023-07-30T06:25:29;6.60;;;5.90;;
5010;SDS011;2524;54.364;10.072;2023-07-30T06:27:56;5.47;;;5.00;;
5010;SDS011;2524;54.364;10.072;2023-07-30T06:30:23;6.30;;;5.70;;
5010;SDS011;2524;54.364;10.072;2023-07-30T06:32:49;7.60;;;6.80;;
5010;SDS011;2524;54.364;10.072;2023-07-30T06:35:15;5.70;;;5.13;;
5010;SDS011;2524;54.364;10.072;2023-07-30T06:37:40;5.70;;;5.20;;
5010;SDS011;2524;54.364;10.072;2023-07-30T06:40:06;7.70;;;5.37;;
5010;SDS011;2524;54.364;10.072;2023-07-30T06:42:32;7.13;;;5.33;;
5010;SDS011;2524;54.364;10.072;2023-07-30T06:44:58;6.20;;;4.30;;
5010;SDS011;2524;54.364;10.072;2023-07-30T06:47:24;4.67;;;4.27;;
5010;SDS011;2524;54.364;10.072;2023-07-30T06:49:49;4.40;;;3.97;;
5010;SDS011;2524;54.364;10.072;2023-07-30T06:52:15;4.63;;;4.30;;
5010;SDS011;2524;54.364;10.072;2023-07-30T06:54:40;6.63;;;5.80;;
5010;SDS011;2524;54.364;10.072;2023-07-30T06:57:06;5.57;;;4.93;;
5010;SDS011;2524;54.364;10.072;2023-07-30T06:59:32;7.77;;;6.03;;
5010;SDS011;2524;54.364;10.072;2023-07-30T07:01:58;5.20;;;4.80;;
5010;SDS011;2524;54.364;10.072;2023-07-30T07:04:24;6.43;;;5.00;;
5010;SDS011;2524;54.364;10.072;2023-07-30T07:06:49;6.20;;;4.90;;
5010;SDS011;2524;54.364;10.072;2023-07-30T07:09:15;4.60;;;4.30;;
5010;SDS011;2524;54.364;10.072;2023-07-30T07:11:41;5.30;;;4.80;;
5010;SDS011;2524;54.364;10.072;2023-07-30T07:14:06;5.00;;;4.20;;
5010;SDS011;2524;54.364;10.072;2023-07-30T07:16:32;3.70;;;3.40;;
5010;SDS011;2524;54.364;10.072;2023-07-30T07:18:57;3.80;;;3.50;;
5010;SDS011;2524;54.364;10.072;2023-07-30T07:21:23;5.87;;;5.37;;
5010;SDS011;2524;54.364;10.072;2023-07-30T07:23:48;5.47;;;4.33;;
5010;SDS011;2524;54.364;10.072;2023-07-30T07:26:14;4.57;;;4.00;;
5010;SDS011;2524;54.364;10.072;2023-07-30T07:28:39;7.03;;;4.17;;
5010;SDS011;2524;54.364;10.072;2023-07-30T07:31:05;4.90;;;4.27;;
5010;SDS011;2524;54.364;10.072;2023-07-30T07:33:31;5.10;;;4.20;;
5010;SDS011;2524;54.364;10.072;2023-07-30T07:36:03;6.57;;;4.23;;
5010;SDS011;2524;54.364;10.072;2023-07-30T07:38:32;6.63;;;4.37;;
5010;SDS011;2524;54.364;10.072;2023-07-30T07:40:59;4.90;;;4.30;;
5010;SDS011;2524;54.364;10.072;2023-07-30T07:43:25;4.50;;;3.80;;
5010;SDS011;2524;54.364;10.072;2023-07-30T07:45:51;4.13;;;3.40;;
5010;SDS011;2524;54.364;10.072;2023-07-30T07:48:16;5.20;;;4.20;;
5010;SDS011;2524;54.364;10.072;2023-07-30T07:50:42;3.63;;;3.40;;
5010;SDS011;2524;54.364;10.072;2023-07-30T07:53:08;4.80;;;3.63;;
5010;SDS011;2524;54.364;10.072;2023-07-30T07:55:33;3.20;;;3.00;;
5010;SDS011;2524;54.364;10.072;2023-07-30T07:57:59;5.13;;;3.90;;
5010;SDS011;2524;54.364;10.072;2023-07-30T08:00:24;3.63;;;3.37;;
5010;SDS011;2524;54.364;10.072;2023-07-30T08:02:50;7.33;;;4.27;;
5010;SDS011;2524;54.364;10.072;2023-07-30T08:05:15;4.60;;;3.73;;
5010;SDS011;2524;54.364;10.072;2023-07-30T08:07:41;4.80;;;4.07;;
5010;SDS011;2524;54.364;10.072;2023-07-30T08:10:09;5.80;;;4.10;;
5010;SDS011;2524;54.364;10.072;2023-07-30T08:12:36;3.40;;;3.20;;
5010;SDS011;2524;54.364;10.072;2023-07-30T08:15:01;4.33;;;3.80;;
5010;SDS011;2524;54.364;10.072;2023-07-30T08:17:27;5.13;;;3.87;;
5010;SDS011;2524;54.364;10.072;2023-07-30T08:19:52;7.27;;;4.20;;
5010;SDS011;2524;54.364;10.072;2023-07-30T08:22:18;3.10;;;2.80;;
5010;SDS011;2524;54.364;10.072;2023-07-30T08:24:43;7.00;;;3.57;;
5010;SDS011;2524;54.364;10.072;2023-07-30T08:27:09;4.10;;;3.60;;
5010;SDS011;2524;54.364;10.072;2023-07-30T08:29:34;3.70;;;3.40;;
5010;SDS011;2524;54.364;10.072;2023-07-30T08:32:00;5.47;;;3.40;;
5010;SDS011;2524;54.364;10.072;2023-07-30T08:34:26;4.97;;;3.70;;
5010;SDS011;2524;54.364;10.072;2023-07-30T08:36:51;5.33;;;4.10;;
5010;SDS011;2524;54.364;10.072;2023-07-30T08:39:17;3.70;;;3.40;;
5010;SDS011;2524;54.364;10.072;2023-07-30T08:41:43;3.93;;;3.30;;
5010;SDS011;2524;54.364;10.072;2023-07-30T08:44:09;4.43;;;3.17;;
5010;SDS011;2524;54.364;10.072;2023-07-30T08:46:34;4.10;;;3.50;;
5010;SDS011;2524;54.364;10.072;2023-07-30T08:49:00;3.50;;;3.27;;
5010;SDS011;2524;54.364;10.072;2023-07-30T08:51:26;2.93;;;2.73;;
5010;SDS011;2524;54.364;10.072;2023-07-30T08:53:52;3.43;;;3.13;;
5010;SDS011;2524;54.364;10.072;2023-07-30T08:56:19;6.73;;;3.77;;
5010;SDS011;2524;54.364;10.072;2023-07-30T08:58:44;5.00;;;3.47;;
5010;SDS011;2524;54.364;10.072;2023-07-30T09:01:11;4.40;;;3.27;;
5010;SDS011;2524;54.364;10.072;2023-07-30T09:03:38;8.03;;;4.30;;
5010;SDS011;2524;54.364;10.072;2023-07-30T09:06:05;6.63;;;3.60;;
5010;SDS011;2524;54.364;10.072;2023-07-30T09:08:31;4.90;;;3.90;;
5010;SDS011;2524;54.364;10.072;2023-07-30T09:11:05;7.70;;;3.73;;
5010;SDS011;2524;54.364;10.072;2023-07-30T09:13:38;3.73;;;2.90;;
5010;SDS011;2524;54.364;10.072;2023-07-30T09:16:11;6.90;;;3.50;;
5010;SDS011;2524;54.364;10.072;2023-07-30T09:18:38;6.10;;;3.17;;
5010;SDS011;2524;54.364;10.072;2023-07-30T09:21:05;4.13;;;2.80;;
5010;SDS011;2524;54.364;10.072;2023-07-30T09:23:31;3.73;;;2.60;;
5010;SDS011;2524;54.364;10.072;2023-07-30T09:25:57;2.43;;;2.20;;
5010;SDS011;2524;54.364;10.072;2023-07-30T09:28:30;2.80;;;2.27;;
5010;SDS011;2524;54.364;10.072;2023-07-30T09:31:00;3.60;;;2.23;;
5010;SDS011;2524;54.364;10.072;2023-07-30T09:33:26;4.10;;;3.00;;
5010;SDS011;2524;54.364;10.072;2023-07-30T09:35:52;6.73;;;3.00;;
5010;SDS011;2524;54.364;10.072;2023-07-30T09:38:18;12.97;;;3.10;;
5010;SDS011;2524;54.364;10.072;2023-07-30T09:40:45;6.53;;;2.80;;
5010;SDS011;2524;54.364;10.072;2023-07-30T09:43:14;2.47;;;2.10;;
5010;SDS011;2524;54.364;10.072;2023-07-30T09:45:40;2.50;;;1.70;;
5010;SDS011;2524;54.364;10.072;2023-07-30T09:48:08;2.57;;;2.37;;
5010;SDS011;2524;54.364;10.072;2023-07-30T09:50:34;7.90;;;2.97;;
5010;SDS011;2524;54.364;10.072;2023-07-30T09:53:00;6.30;;;2.60;;
5010;SDS011;2524;54.364;10.072;2023-07-30T09:55:27;4.37;;;2.40;;
5010;SDS011;2524;54.364;10.072;2023-07-30T09:57:52;3.80;;;2.10;;
5010;SDS011;2524;54.364;10.072;2023-07-30T10:00:18;3.70;;;2.50;;
5010;SDS011;2524;54.364;10.072;2023-07-30T10:02:45;7.50;;;2.67;;
5010;SDS011;2524;54.364;10.072;2023-07-30T10:05:16;2.97;;;2.10;;
5010;SDS011;2524;54.364;10.072;2023-07-30T10:07:51;5.57;;;2.67;;
5010;SDS011;2524;54.364;10.072;2023-07-30T10:10:23;4.43;;;2.37;;
5010;SDS011;2524;54.364;10.072;2023-07-30T10:12:49;7.20;;;2.50;;
5010;SDS011;2524;54.364;10.072;2023-07-30T10:15:20;5.47;;;2.60;;
5010;SDS011;2524;54.364;10.072;2023-07-30T10:17:48;6.13;;;2.70;;
5010;SDS011;2524;54.364;10.072;2023-07-30T10:22:50;5.13;;;2.57;;
5010;SDS011;2524;54.364;10.072;2023-07-30T10:25:17;4.33;;;2.00;;
5010;SDS011;2524;54.364;10.072;2023-07-30T10:27:48;5.90;;;2.63;;
5010;SDS011;2524;54.364;10.072;2023-07-30T10:30:15;5.80;;;2.60;;
5010;SDS011;2524;54.364;10.072;2023-07-30T10:38:21;7.40;;;3.30;;
5010;SDS011;2524;54.364;10.072;2023-07-30T10:43:43;2.60;;;2.30;;
5010;SDS011;2524;54.364;10.072;2023-07-30T10:46:16;3.40;;;2.60;;
5010;SDS011;2524;54.364;10.072;2023-07-30T10:48:44;4.67;;;2.83;;
5010;SDS011;2524;54.364;10.072;2023-07-30T10:51:14;5.23;;;2.60;;
5010;SDS011;2524;54.364;10.072;2023-07-30T10:53:44;7.70;;;3.20;;
5010;SDS011;2524;54.364;10.072;2023-07-30T10:56:15;5.90;;;2.73;;
5010;SDS011;2524;54.364;10.072;2023-07-30T10:58:42;6.13;;;2.93;;
5010;SDS011;2524;54.364;10.072;2023-07-30T11:01:13;6.20;;;2.63;;
5010;SDS011;2524;54.364;10.072;2023-07-30T11:03:39;6.07;;;2.57;;
5010;SDS011;2524;54.364;10.072;2023-07-30T11:06:04;7.20;;;2.93;;
5010;SDS011;2524;54.364;10.072;2023-07-30T11:10:59;6.10;;;2.70;;
5010;SDS011;2524;54.364;10.072;2023-07-30T11:13:25;3.87;;;2.40;;
5010;SDS011;2524;54.364;10.072;2023-07-30T11:15:51;3.90;;;2.43;;
5010;SDS011;2524;54.364;10.072;2023-07-30T11:18:17;3.63;;;2.20;;
5010;SDS011;2524;54.364;10.072;2023-07-30T11:20:43;5.47;;;2.60;;
5010;SDS011;2524;54.364;10.072;2023-07-30T11:23:18;3.23;;;2.70;;
5010;SDS011;2524;54.364;10.072;2023-07-30T11:25:48;4.00;;;2.33;;
5010;SDS011;2524;54.364;10.072;2023-07-30T11:28:15;3.67;;;2.47;;
5010;SDS011;2524;54.364;10.072;2023-07-30T11:30:53;5.30;;;2.57;;
5010;SDS011;2524;54.364;10.072;2023-07-30T11:33:18;6.70;;;2.67;;
5010;SDS011;2524;54.364;10.072;2023-07-30T11:35:44;5.50;;;2.33;;
5010;SDS011;2524;54.364;10.072;2023-07-30T11:38:10;4.33;;;1.77;;
5010;SDS011;2524;54.364;10.072;2023-07-30T11:40:37;8.50;;;2.43;;
5010;SDS011;2524;54.364;10.072;2023-07-30T11:43:03;3.60;;;2.23;;
5010;SDS011;2524;54.364;10.072;2023-07-30T11:45:29;5.27;;;2.30;;
5010;SDS011;2524;54.364;10.072;2023-07-30T11:47:55;4.07;;;1.90;;
5010;SDS011;2524;54.364;10.072;2023-07-30T11:50:43;4.60;;;1.73;;
5010;SDS011;2524;54.364;10.072;2023-07-30T11:53:09;3.20;;;2.10;;
5010;SDS011;2524;54.364;10.072;2023-07-30T11:55:38;3.50;;;1.90;;
5010;SDS011;2524;54.364;10.072;2023-07-30T11:58:05;3.87;;;1.60;;
5010;SDS011;2524;54.364;10.072;2023-07-30T12:00:32;3.70;;;1.77;;
5010;SDS011;2524;54.364;10.072;2023-07-30T12:03:04;4.93;;;1.90;;
5010;SDS011;2524;54.364;10.072;2023-07-30T12:05:35;1.90;;;1.70;;
5010;SDS011;2524;54.364;10.072;2023-07-30T12:08:02;6.30;;;2.50;;
5010;SDS011;2524;54.364;10.072;2023-07-30T12:10:47;2.03;;;1.93;;
5010;SDS011;2524;54.364;10.072;2023-07-30T12:13:17;5.13;;;3.13;;
5010;SDS011;2524;54.364;10.072;2023-07-30T12:15:54;3.07;;;1.43;;
5010;SDS011;2524;54.364;10.072;2023-07-30T12:18:21;3.40;;;1.57;;
5010;SDS011;2524;54.364;10.072;2023-07-30T12:20:51;4.20;;;2.07;;
5010;SDS011;2524;54.364;10.072;2023-07-30T12:23:19;3.43;;;1.73;;
5010;SDS011;2524;54.364;10.072;2023-07-30T12:25:45;5.80;;;1.77;;
5010;SDS011;2524;54.364;10.072;2023-07-30T12:28:11;4.30;;;1.90;;
5010;SDS011;2524;54.364;10.072;2023-07-30T12:30:37;2.10;;;1.57;;
5010;SDS011;2524;54.364;10.072;2023-07-30T12:33:03;4.53;;;1.90;;
5010;SDS011;2524;54.364;10.072;2023-07-30T12:35:30;4.30;;;1.63;;
5010;SDS011;2524;54.364;10.072;2023-07-30T12:37:56;3.63;;;1.87;;
5010;SDS011;2524;54.364;10.072;2023-07-30T12:40:23;2.63;;;1.63;;
5010;SDS011;2524;54.364;10.072;2023-07-30T12:42:48;6.10;;;2.10;;
5010;SDS011;2524;54.364;10.072;2023-07-30T12:45:14;2.43;;;1.60;;
5010;SDS011;2524;54.364;10.072;2023-07-30T12:47:40;3.27;;;1.80;;
5010;SDS011;2524;54.364;10.072;2023-07-30T12:50:05;5.27;;;2.30;;
5010;SDS011;2524;54.364;10.072;2023-07-30T12:52:32;5.77;;;2.47;;
5010;SDS011;2524;54.364;10.072;2023-07-30T12:54:58;2.57;;;1.50;;
5010;SDS011;2524;54.364;10.072;2023-07-30T12:57:23;4.20;;;1.80;;
5010;SDS011;2524;54.364;10.072;2023-07-30T12:59:49;5.60;;;1.67;;
5010;SDS011;2524;54.364;10.072;2023-07-30T13:02:14;2.20;;;1.30;;
5010;SDS011;2524;54.364;10.072;2023-07-30T13:04:40;1.57;;;1.20;;
5010;SDS011;2524;54.364;10.072;2023-07-30T13:07:05;3.70;;;1.90;;
5010;SDS011;2524;54.364;10.072;2023-07-30T13:09:31;2.30;;;1.50;;
5010;SDS011;2524;54.364;10.072;2023-07-30T13:11:57;4.67;;;1.90;;
5010;SDS011;2524;54.364;10.072;2023-07-30T13:14:25;4.80;;;1.70;;
5010;SDS011;2524;54.364;10.072;2023-07-30T13:16:50;2.33;;;1.43;;
5010;SDS011;2524;54.364;10.072;2023-07-30T13:19:16;9.00;;;2.23;;
5010;SDS011;2524;54.364;10.072;2023-07-30T13:21:42;2.57;;;1.50;;
5010;SDS011;2524;54.364;10.072;2023-07-30T13:24:07;7.20;;;1.90;;
5010;SDS011;2524;54.364;10.072;2023-07-30T13:26:33;7.37;;;2.30;;
5010;SDS011;2524;54.364;10.072;2023-07-30T13:29:00;4.70;;;1.93;;
5010;SDS011;2524;54.364;10.072;2023-07-30T13:31:25;6.70;;;2.20;;
5010;SDS011;2524;54.364;10.072;2023-07-30T13:33:51;6.80;;;2.67;;
5010;SDS011;2524;54.364;10.072;2023-07-30T13:36:17;2.67;;;1.67;;
5010;SDS011;2524;54.364;10.072;2023-07-30T13:38:42;1.90;;;1.60;;
5010;SDS011;2524;54.364;10.072;2023-07-30T13:41:08;2.93;;;1.60;;
5010;SDS011;2524;54.364;10.072;2023-07-30T13:43:34;3.13;;;1.50;;
5010;SDS011;2524;54.364;10.072;2023-07-30T13:46:00;3.03;;;1.60;;
5010;SDS011;2524;54.364;10.072;2023-07-30T13:48:25;2.70;;;1.43;;
5010;SDS011;2524;54.364;10.072;2023-07-30T13:50:51;1.80;;;1.23;;
5010;SDS011;2524;54.364;10.072;2023-07-30T13:53:17;1.47;;;1.37;;
5010;SDS011;2524;54.364;10.072;2023-07-30T13:55:43;4.50;;;1.80;;
5010;SDS011;2524;54.364;10.072;2023-07-30T13:58:09;1.50;;;1.40;;
5010;SDS011;2524;54.364;10.072;2023-07-30T14:00:35;1.60;;;1.23;;
5010;SDS011;2524;54.364;10.072;2023-07-30T14:03:00;1.87;;;1.47;;
5010;SDS011;2524;54.364;10.072;2023-07-30T14:05:26;3.00;;;1.67;;
5010;SDS011;2524;54.364;10.072;2023-07-30T14:07:54;1.80;;;1.40;;
5010;SDS011;2524;54.364;10.072;2023-07-30T14:10:22;2.90;;;1.80;;
5010;SDS011;2524;54.364;10.072;2023-07-30T14:12:48;1.57;;;1.47;;
5010;SDS011;2524;54.364;10.072;2023-07-30T14:15:14;3.17;;;1.60;;
5010;SDS011;2524;54.364;10.072;2023-07-30T14:17:40;3.23;;;1.83;;
5010;SDS011;2524;54.364;10.072;2023-07-30T14:20:06;2.03;;;1.60;;
5010;SDS011;2524;54.364;10.072;2023-07-30T14:22:32;4.00;;;1.60;;
5010;SDS011;2524;54.364;10.072;2023-07-30T14:24:59;7.00;;;2.33;;
5010;SDS011;2524;54.364;10.072;2023-07-30T14:27:24;2.00;;;1.50;;
5010;SDS011;2524;54.364;10.072;2023-07-30T14:29:50;4.23;;;1.73;;
5010;SDS011;2524;54.364;10.072;2023-07-30T14:32:16;3.50;;;1.93;;
5010;SDS011;2524;54.364;10.072;2023-07-30T14:34:43;3.80;;;1.60;;
5010;SDS011;2524;54.364;10.072;2023-07-30T14:37:08;5.07;;;2.33;;
5010;SDS011;2524;54.364;10.072;2023-07-30T14:39:34;6.17;;;2.10;;
5010;SDS011;2524;54.364;10.072;2023-07-30T14:41:59;1.90;;;1.43;;
5010;SDS011;2524;54.364;10.072;2023-07-30T14:44:25;2.83;;;1.50;;
5010;SDS011;2524;54.364;10.072;2023-07-30T14:46:50;5.97;;;2.23;;
5010;SDS011;2524;54.364;10.072;2023-07-30T14:49:16;6.00;;;1.93;;
5010;SDS011;2524;54.364;10.072;2023-07-30T14:51:42;3.03;;;1.70;;
5010;SDS011;2524;54.364;10.072;2023-07-30T14:54:08;3.37;;;2.00;;
5010;SDS011;2524;54.364;10.072;2023-07-30T14:56:35;3.60;;;1.70;;
5010;SDS011;2524;54.364;10.072;2023-07-30T14:59:00;4.37;;;2.00;;
5010;SDS011;2524;54.364;10.072;2023-07-30T15:01:28;2.30;;;1.50;;
5010;SDS011;2524;54.364;10.072;2023-07-30T15:03:54;4.00;;;1.90;;
5010;SDS011;2524;54.364;10.072;2023-07-30T15:06:20;3.60;;;1.50;;
5010;SDS011;2524;54.364;10.072;2023-07-30T15:08:46;6.03;;;1.97;;